sensor_id;sensor_type;location;lat;lon;timestamp;temperature;humidity
10155;DHT22;5118;48.570;7.916;2024-03-29T00:01:43;8.80;99.90
10155;DHT22;5118;48.570;7.916;2024-03-29T00:04:10;8.80;99.90
10155;DHT22;5118;48.570;7.916;2024-03-29T00:06:36;8.80;99.90
10155;DHT22;5118;48.570;7.916;2024-03-29T00:09:03;8.80;99.90
10155;DHT22;5118;48.570;7.916;2024-03-29T00:11:30;8.80;99.90
10155;DHT22;5118;48.570;7.916;2024-03-29T00:13:58;8.80;99.90
10155;DHT22;5118;48.570;7.916;2024-03-29T00:16:25;8.80;99.90
10155;DHT22;5118;48.570;7.916;2024-03-29T00:18:52;8.90;99.90
10155;DHT22;5118;48.570;7.916;2024-03-29T00:21:20;8.90;99.90
10155;DHT22;5118;48.570;7.916;2024-03-29T00:23:46;8.90;99.90
10155;DHT22;5118;48.570;7.916;2024-03-29T00:26:13;8.90;99.90
10155;DHT22;5118;48.570;7.916;2024-03-29T00:28:40;8.80;99.90
10155;DHT22;5118;48.570;7.916;2024-03-29T00:31:08;8.80;99.90
10155;DHT22;5118;48.570;7.916;2024-03-29T00:33:35;8.70;99.90
10155;DHT22;5118;48.570;7.916;2024-03-29T00:36:02;8.70;99.90
10155;DHT22;5118;48.570;7.916;2024-03-29T00:38:29;8.60;99.90
10155;DHT22;5118;48.570;7.916;2024-03-29T00:40:55;8.50;99.90
10155;DHT22;5118;48.570;7.916;2024-03-29T00:43:22;8.30;99.90
10155;DHT22;5118;48.570;7.916;2024-03-29T00:45:48;8.20;99.90
10155;DHT22;5118;48.570;7.916;2024-03-29T00:48:17;8.10;99.90
10155;DHT22;5118;48.570;7.916;2024-03-29T00:50:44;7.90;99.90
10155;DHT22;5118;48.570;7.916;2024-03-29T00:53:11;7.80;99.90
10155;DHT22;5118;48.570;7.916;2024-03-29T00:55:37;7.70;99.90
10155;DHT22;5118;48.570;7.916;2024-03-29T00:58:05;7.60;99.90
10155;DHT22;5118;48.570;7.916;2024-03-29T01:00:32;7.50;99.90
10155;DHT22;5118;48.570;7.916;2024-03-29T01:02:59;7.50;99.90
10155;DHT22;5118;48.570;7.916;2024-03-29T01:05:27;7.50;99.90
10155;DHT22;5118;48.570;7.916;2024-03-29T01:07:53;7.50;99.90
10155;DHT22;5118;48.570;7.916;2024-03-29T01:10:20;7.50;99.90
10155;DHT22;5118;48.570;7.916;2024-03-29T01:12:48;7.60;99.90
10155;DHT22;5118;48.570;7.916;2024-03-29T01:15:14;7.70;99.90
10155;DHT22;5118;48.570;7.916;2024-03-29T01:17:41;7.70;99.90
10155;DHT22;5118;48.570;7.916;2024-03-29T01:20:08;7.80;99.90
10155;DHT22;5118;48.570;7.916;2024-03-29T01:22:36;7.80;99.90
10155;DHT22;5118;48.570;7.916;2024-03-29T01:25:03;7.90;99.90
10155;DHT22;5118;48.570;7.916;2024-03-29T01:27:29;8.00;99.90
10155;DHT22;5118;48.570;7.916;2024-03-29T01:29:56;8.00;99.90
10155;DHT22;5118;48.570;7.916;2024-03-29T01:32:22;8.10;99.90
10155;DHT22;5118;48.570;7.916;2024-03-29T01:34:49;8.10;99.90
10155;DHT22;5118;48.570;7.916;2024-03-29T01:37:15;8.20;99.90
10155;DHT22;5118;48.570;7.916;2024-03-29T01:39:44;8.30;99.90
10155;DHT22;5118;48.570;7.916;2024-03-29T01:42:10;8.30;99.90
10155;DHT22;5118;48.570;7.916;2024-03-29T01:44:37;8.30;99.90
10155;DHT22;5118;48.570;7.916;2024-03-29T01:47:04;8.40;99.90
10155;DHT22;5118;48.570;7.916;2024-03-29T01:49:32;8.40;99.90
10155;DHT22;5118;48.570;7.916;2024-03-29T01:52:02;8.40;99.90
10155;DHT22;5118;48.570;7.916;2024-03-29T01:54:31;8.40;99.90
10155;DHT22;5118;48.570;7.916;2024-03-29T01:57:00;8.50;99.90
10155;DHT22;5118;48.570;7.916;2024-03-29T01:59:28;8.50;99.90
10155;DHT22;5118;48.570;7.916;2024-03-29T02:01:56;8.50;99.90
10155;DHT22;5118;48.570;7.916;2024-03-29T02:04:24;8.50;99.90
10155;DHT22;5118;48.570;7.916;2024-03-29T02:06:51;8.50;99.90
10155;DHT22;5118;48.570;7.916;2024-03-29T02:09:19;8.60;99.90
10155;DHT22;5118;48.570;7.916;2024-03-29T02:11:46;8.60;99.90
10155;DHT22;5118;48.570;7.916;2024-03-29T02:14:15;8.60;99.90
10155;DHT22;5118;48.570;7.916;2024-03-29T02:16:42;8.70;99.90
10155;DHT22;5118;48.570;7.916;2024-03-29T02:19:09;8.70;99.90
10155;DHT22;5118;48.570;7.916;2024-03-29T02:21:39;8.80;99.90
10155;DHT22;5118;48.570;7.916;2024-03-29T02:24:09;8.80;99.90
10155;DHT22;5118;48.570;7.916;2024-03-29T02:26:38;8.80;99.90
10155;DHT22;5118;48.570;7.916;2024-03-29T02:29:08;8.80;99.90
10155;DHT22;5118;48.570;7.916;2024-03-29T02:31:36;8.90;99.90
10155;DHT22;5118;48.570;7.916;2024-03-29T02:34:03;8.90;99.90
10155;DHT22;5118;48.570;7.916;2024-03-29T02:36:31;8.90;99.90
10155;DHT22;5118;48.570;7.916;2024-03-29T02:38:58;9.00;99.90
10155;DHT22;5118;48.570;7.916;2024-03-29T02:41:27;9.00;99.90
10155;DHT22;5118;48.570;7.916;2024-03-29T02:43:56;9.10;99.90
10155;DHT22;5118;48.570;7.916;2024-03-29T02:46:24;9.10;99.90
10155;DHT22;5118;48.570;7.916;2024-03-29T02:48:51;9.10;99.90
10155;DHT22;5118;48.570;7.916;2024-03-29T02:51:18;9.20;99.90
10155;DHT22;5118;48.570;7.916;2024-03-29T02:53:46;9.10;99.90
10155;DHT22;5118;48.570;7.916;2024-03-29T02:56:13;9.10;99.90
10155;DHT22;5118;48.570;7.916;2024-03-29T02:58:46;9.10;99.90
10155;DHT22;5118;48.570;7.916;2024-03-29T03:01:12;9.10;99.90
10155;DHT22;5118;48.570;7.916;2024-03-29T03:03:40;9.10;99.90
10155;DHT22;5118;48.570;7.916;2024-03-29T03:06:06;9.10;99.90
10155;DHT22;5118;48.570;7.916;2024-03-29T03:08:34;9.20;99.90
10155;DHT22;5118;48.570;7.916;2024-03-29T03:11:19;9.20;99.90
10155;DHT22;5118;48.570;7.916;2024-03-29T03:13:48;9.20;99.90
10155;DHT22;5118;48.570;7.916;2024-03-29T03:16:15;9.10;99.90
10155;DHT22;5118;48.570;7.916;2024-03-29T03:18:43;9.20;99.90
10155;DHT22;5118;48.570;7.916;2024-03-29T03:21:09;9.10;99.90
10155;DHT22;5118;48.570;7.916;2024-03-29T03:23:36;9.10;99.90
10155;DHT22;5118;48.570;7.916;2024-03-29T03:26:03;9.10;99.90
10155;DHT22;5118;48.570;7.916;2024-03-29T03:28:31;9.10;99.90
10155;DHT22;5118;48.570;7.916;2024-03-29T03:30:58;9.10;99.90
10155;DHT22;5118;48.570;7.916;2024-03-29T03:33:26;9.10;99.90
10155;DHT22;5118;48.570;7.916;2024-03-29T03:35:52;9.00;99.90
10155;DHT22;5118;48.570;7.916;2024-03-29T03:38:20;9.00;99.90
10155;DHT22;5118;48.570;7.916;2024-03-29T03:40:46;9.00;99.90
10155;DHT22;5118;48.570;7.916;2024-03-29T03:43:14;9.00;99.90
10155;DHT22;5118;48.570;7.916;2024-03-29T03:45:41;9.00;99.90
10155;DHT22;5118;48.570;7.916;2024-03-29T03:48:10;9.00;99.90
10155;DHT22;5118;48.570;7.916;2024-03-29T03:50:37;8.90;99.90
10155;DHT22;5118;48.570;7.916;2024-03-29T03:53:05;9.00;99.90
10155;DHT22;5118;48.570;7.916;2024-03-29T03:55:31;9.00;99.90
10155;DHT22;5118;48.570;7.916;2024-03-29T03:58:02;9.00;99.90
10155;DHT22;5118;48.570;7.916;2024-03-29T04:00:29;9.00;99.90
10155;DHT22;5118;48.570;7.916;2024-03-29T04:02:56;9.00;99.90
10155;DHT22;5118;48.570;7.916;2024-03-29T04:05:24;9.00;99.90
10155;DHT22;5118;48.570;7.916;2024-03-29T04:07:52;9.00;99.90
10155;DHT22;5118;48.570;7.916;2024-03-29T04:10:18;9.00;99.90
10155;DHT22;5118;48.570;7.916;2024-03-29T04:12:46;9.00;99.90
10155;DHT22;5118;48.570;7.916;2024-03-29T04:15:12;9.10;99.90
10155;DHT22;5118;48.570;7.916;2024-03-29T04:17:39;9.00;99.90
10155;DHT22;5118;48.570;7.916;2024-03-29T04:20:07;9.10;99.90
10155;DHT22;5118;48.570;7.916;2024-03-29T04:22:36;9.10;99.90
10155;DHT22;5118;48.570;7.916;2024-03-29T04:25:02;9.10;99.90
10155;DHT22;5118;48.570;7.916;2024-03-29T04:27:30;9.10;99.90
10155;DHT22;5118;48.570;7.916;2024-03-29T04:29:56;9.10;99.90
10155;DHT22;5118;48.570;7.916;2024-03-29T04:32:23;9.10;99.90
10155;DHT22;5118;48.570;7.916;2024-03-29T04:34:50;9.10;99.90
10155;DHT22;5118;48.570;7.916;2024-03-29T04:37:18;9.00;99.90
10155;DHT22;5118;48.570;7.916;2024-03-29T04:39:47;9.00;99.90
10155;DHT22;5118;48.570;7.916;2024-03-29T04:42:14;8.90;99.90
10155;DHT22;5118;48.570;7.916;2024-03-29T04:44:41;8.90;99.90
10155;DHT22;5118;48.570;7.916;2024-03-29T04:47:09;8.90;99.90
10155;DHT22;5118;48.570;7.916;2024-03-29T04:49:36;8.90;99.90
10155;DHT22;5118;48.570;7.916;2024-03-29T04:52:04;8.90;99.90
10155;DHT22;5118;48.570;7.916;2024-03-29T04:54:32;8.80;99.90
10155;DHT22;5118;48.570;7.916;2024-03-29T04:57:01;8.90;99.90
10155;DHT22;5118;48.570;7.916;2024-03-29T04:59:29;8.90;99.90
10155;DHT22;5118;48.570;7.916;2024-03-29T05:01:58;8.80;99.90
10155;DHT22;5118;48.570;7.916;2024-03-29T05:04:26;8.90;99.90
10155;DHT22;5118;48.570;7.916;2024-03-29T05:06:53;8.90;99.90
10155;DHT22;5118;48.570;7.916;2024-03-29T05:09:21;9.00;99.90
10155;DHT22;5118;48.570;7.916;2024-03-29T05:11:49;9.00;99.90
10155;DHT22;5118;48.570;7.916;2024-03-29T05:14:20;9.00;99.90
10155;DHT22;5118;48.570;7.916;2024-03-29T05:16:48;9.00;99.90
10155;DHT22;5118;48.570;7.916;2024-03-29T05:19:16;9.10;99.90
10155;DHT22;5118;48.570;7.916;2024-03-29T05:21:45;9.10;99.90
10155;DHT22;5118;48.570;7.916;2024-03-29T05:24:12;9.10;99.90
10155;DHT22;5118;48.570;7.916;2024-03-29T05:26:40;9.20;99.90
10155;DHT22;5118;48.570;7.916;2024-03-29T05:29:07;9.20;99.90
10155;DHT22;5118;48.570;7.916;2024-03-29T05:31:36;9.20;99.90
10155;DHT22;5118;48.570;7.916;2024-03-29T05:34:03;9.20;99.90
10155;DHT22;5118;48.570;7.916;2024-03-29T05:36:31;9.30;99.90
10155;DHT22;5118;48.570;7.916;2024-03-29T05:38:58;9.20;99.90
10155;DHT22;5118;48.570;7.916;2024-03-29T05:41:26;9.30;99.90
10155;DHT22;5118;48.570;7.916;2024-03-29T05:43:53;9.30;99.90
10155;DHT22;5118;48.570;7.916;2024-03-29T05:46:21;9.30;99.90
10155;DHT22;5118;48.570;7.916;2024-03-29T05:48:49;9.40;99.90
10155;DHT22;5118;48.570;7.916;2024-03-29T05:51:17;9.40;99.90
10155;DHT22;5118;48.570;7.916;2024-03-29T05:53:44;9.50;99.90
10155;DHT22;5118;48.570;7.916;2024-03-29T05:56:11;9.50;99.90
10155;DHT22;5118;48.570;7.916;2024-03-29T05:58:39;9.60;99.90
10155;DHT22;5118;48.570;7.916;2024-03-29T06:01:06;9.60;99.90
10155;DHT22;5118;48.570;7.916;2024-03-29T06:03:33;9.60;99.90
10155;DHT22;5118;48.570;7.916;2024-03-29T06:06:02;9.60;99.90
10155;DHT22;5118;48.570;7.916;2024-03-29T06:08:30;9.70;99.90
10155;DHT22;5118;48.570;7.916;2024-03-29T06:10:57;9.70;99.90
10155;DHT22;5118;48.570;7.916;2024-03-29T06:13:25;9.70;99.90
10155;DHT22;5118;48.570;7.916;2024-03-29T06:16:16;9.70;99.90
10155;DHT22;5118;48.570;7.916;2024-03-29T06:19:01;9.70;99.90
10155;DHT22;5118;48.570;7.916;2024-03-29T06:21:31;9.70;99.90
10155;DHT22;5118;48.570;7.916;2024-03-29T06:24:05;9.80;99.90
10155;DHT22;5118;48.570;7.916;2024-03-29T06:26:33;9.80;99.90
10155;DHT22;5118;48.570;7.916;2024-03-29T06:29:01;9.80;99.90
10155;DHT22;5118;48.570;7.916;2024-03-29T06:31:28;9.80;99.90
10155;DHT22;5118;48.570;7.916;2024-03-29T06:33:57;9.80;99.90
10155;DHT22;5118;48.570;7.916;2024-03-29T06:36:24;9.80;99.90
10155;DHT22;5118;48.570;7.916;2024-03-29T06:38:54;9.80;99.90
10155;DHT22;5118;48.570;7.916;2024-03-29T06:41:21;9.80;99.90
10155;DHT22;5118;48.570;7.916;2024-03-29T06:43:49;9.80;99.90
10155;DHT22;5118;48.570;7.916;2024-03-29T06:46:17;9.90;99.90
10155;DHT22;5118;48.570;7.916;2024-03-29T06:48:44;9.80;99.90
10155;DHT22;5118;48.570;7.916;2024-03-29T06:51:12;9.80;99.90
10155;DHT22;5118;48.570;7.916;2024-03-29T06:53:39;9.90;99.90
10155;DHT22;5118;48.570;7.916;2024-03-29T06:56:08;9.90;99.90
10155;DHT22;5118;48.570;7.916;2024-03-29T06:58:35;9.90;99.90
10155;DHT22;5118;48.570;7.916;2024-03-29T07:01:03;9.80;99.90
10155;DHT22;5118;48.570;7.916;2024-03-29T07:03:30;9.80;99.90
10155;DHT22;5118;48.570;7.916;2024-03-29T07:05:57;9.80;99.90
10155;DHT22;5118;48.570;7.916;2024-03-29T07:08:25;9.80;99.90
10155;DHT22;5118;48.570;7.916;2024-03-29T07:10:58;9.80;99.90
10155;DHT22;5118;48.570;7.916;2024-03-29T07:13:29;9.80;99.90
10155;DHT22;5118;48.570;7.916;2024-03-29T07:15:57;9.80;99.90
10155;DHT22;5118;48.570;7.916;2024-03-29T07:18:25;9.80;99.90
10155;DHT22;5118;48.570;7.916;2024-03-29T07:20:53;9.90;99.90
10155;DHT22;5118;48.570;7.916;2024-03-29T07:23:20;9.90;99.90
10155;DHT22;5118;48.570;7.916;2024-03-29T07:25:58;9.90;99.90
10155;DHT22;5118;48.570;7.916;2024-03-29T07:28:27;9.80;99.90
10155;DHT22;5118;48.570;7.916;2024-03-29T07:30:54;9.80;99.90
10155;DHT22;5118;48.570;7.916;2024-03-29T07:33:23;9.80;99.90
10155;DHT22;5118;48.570;7.916;2024-03-29T07:35:52;9.70;99.90
10155;DHT22;5118;48.570;7.916;2024-03-29T07:38:20;9.70;99.90
10155;DHT22;5118;48.570;7.916;2024-03-29T07:40:47;9.70;99.90
10155;DHT22;5118;48.570;7.916;2024-03-29T07:43:15;9.60;99.90
10155;DHT22;5118;48.570;7.916;2024-03-29T07:45:44;9.60;99.90
10155;DHT22;5118;48.570;7.916;2024-03-29T07:48:12;9.60;99.90
10155;DHT22;5118;48.570;7.916;2024-03-29T07:50:41;9.60;99.90
10155;DHT22;5118;48.570;7.916;2024-03-29T07:53:09;9.60;99.90
10155;DHT22;5118;48.570;7.916;2024-03-29T07:55:37;9.60;99.90
10155;DHT22;5118;48.570;7.916;2024-03-29T07:58:05;9.60;99.90
10155;DHT22;5118;48.570;7.916;2024-03-29T08:00:33;9.60;99.90
10155;DHT22;5118;48.570;7.916;2024-03-29T08:03:02;9.60;99.90
10155;DHT22;5118;48.570;7.916;2024-03-29T08:05:29;9.60;99.90
10155;DHT22;5118;48.570;7.916;2024-03-29T08:07:57;9.60;99.90
10155;DHT22;5118;48.570;7.916;2024-03-29T08:10:24;9.60;99.90
10155;DHT22;5118;48.570;7.916;2024-03-29T08:12:52;9.70;99.90
10155;DHT22;5118;48.570;7.916;2024-03-29T08:15:19;9.70;99.90
10155;DHT22;5118;48.570;7.916;2024-03-29T08:17:46;9.70;99.90
10155;DHT22;5118;48.570;7.916;2024-03-29T08:20:15;9.70;99.90
10155;DHT22;5118;48.570;7.916;2024-03-29T08:22:43;9.80;99.90
10155;DHT22;5118;48.570;7.916;2024-03-29T08:25:11;9.80;99.90
10155;DHT22;5118;48.570;7.916;2024-03-29T08:27:38;9.90;99.90
10155;DHT22;5118;48.570;7.916;2024-03-29T08:30:07;9.90;99.90
10155;DHT22;5118;48.570;7.916;2024-03-29T08:32:33;10.00;99.90
10155;DHT22;5118;48.570;7.916;2024-03-29T08:35:01;10.00;99.90
10155;DHT22;5118;48.570;7.916;2024-03-29T08:37:30;10.10;99.90
10155;DHT22;5118;48.570;7.916;2024-03-29T08:39:57;10.20;99.90
10155;DHT22;5118;48.570;7.916;2024-03-29T08:42:25;10.30;99.90
10155;DHT22;5118;48.570;7.916;2024-03-29T08:44:52;10.40;99.90
10155;DHT22;5118;48.570;7.916;2024-03-29T08:47:20;10.50;99.90
10155;DHT22;5118;48.570;7.916;2024-03-29T08:49:47;10.60;99.90
10155;DHT22;5118;48.570;7.916;2024-03-29T08:52:15;10.70;99.90
10155;DHT22;5118;48.570;7.916;2024-03-29T08:54:45;10.80;99.90
10155;DHT22;5118;48.570;7.916;2024-03-29T08:57:12;10.90;99.90
10155;DHT22;5118;48.570;7.916;2024-03-29T08:59:39;11.00;99.90
10155;DHT22;5118;48.570;7.916;2024-03-29T09:02:08;11.10;99.90
10155;DHT22;5118;48.570;7.916;2024-03-29T09:04:36;11.20;99.90
10155;DHT22;5118;48.570;7.916;2024-03-29T09:07:03;11.30;99.90
10155;DHT22;5118;48.570;7.916;2024-03-29T09:09:32;11.40;99.90
10155;DHT22;5118;48.570;7.916;2024-03-29T09:12:00;11.50;99.90
10155;DHT22;5118;48.570;7.916;2024-03-29T09:14:28;11.60;99.90
10155;DHT22;5118;48.570;7.916;2024-03-29T09:16:55;11.70;99.90
10155;DHT22;5118;48.570;7.916;2024-03-29T09:19:22;11.80;99.90
10155;DHT22;5118;48.570;7.916;2024-03-29T09:21:50;11.90;99.90
10155;DHT22;5118;48.570;7.916;2024-03-29T09:24:18;12.00;99.90
10155;DHT22;5118;48.570;7.916;2024-03-29T09:26:48;12.10;99.90
10155;DHT22;5118;48.570;7.916;2024-03-29T09:29:18;12.10;99.90
10155;DHT22;5118;48.570;7.916;2024-03-29T09:31:47;12.20;99.90
10155;DHT22;5118;48.570;7.916;2024-03-29T09:34:14;12.30;99.90
10155;DHT22;5118;48.570;7.916;2024-03-29T09:36:42;12.30;99.90
10155;DHT22;5118;48.570;7.916;2024-03-29T09:39:09;12.30;99.90
10155;DHT22;5118;48.570;7.916;2024-03-29T09:41:37;12.30;99.90
10155;DHT22;5118;48.570;7.916;2024-03-29T09:44:08;12.30;99.90
10155;DHT22;5118;48.570;7.916;2024-03-29T09:46:37;12.30;99.90
10155;DHT22;5118;48.570;7.916;2024-03-29T09:49:08;12.30;99.90
10155;DHT22;5118;48.570;7.916;2024-03-29T09:51:37;12.30;99.90
10155;DHT22;5118;48.570;7.916;2024-03-29T09:54:05;12.30;99.90
10155;DHT22;5118;48.570;7.916;2024-03-29T09:56:34;12.30;99.90
10155;DHT22;5118;48.570;7.916;2024-03-29T09:59:04;12.30;99.90
10155;DHT22;5118;48.570;7.916;2024-03-29T10:01:31;12.40;99.90
10155;DHT22;5118;48.570;7.916;2024-03-29T10:04:00;12.50;99.90
10155;DHT22;5118;48.570;7.916;2024-03-29T10:06:30;12.50;99.90
10155;DHT22;5118;48.570;7.916;2024-03-29T10:08:57;12.60;99.90
10155;DHT22;5118;48.570;7.916;2024-03-29T10:11:25;12.70;99.90
10155;DHT22;5118;48.570;7.916;2024-03-29T10:13:53;13.00;99.90
10155;DHT22;5118;48.570;7.916;2024-03-29T10:16:20;13.20;99.90
10155;DHT22;5118;48.570;7.916;2024-03-29T10:18:50;13.30;99.90
10155;DHT22;5118;48.570;7.916;2024-03-29T10:21:25;13.60;99.90
10155;DHT22;5118;48.570;7.916;2024-03-29T10:23:52;13.80;99.90
10155;DHT22;5118;48.570;7.916;2024-03-29T10:26:21;14.10;99.90
10155;DHT22;5118;48.570;7.916;2024-03-29T10:28:48;14.20;99.90
10155;DHT22;5118;48.570;7.916;2024-03-29T10:31:17;14.40;99.90
10155;DHT22;5118;48.570;7.916;2024-03-29T10:33:45;14.80;99.90
10155;DHT22;5118;48.570;7.916;2024-03-29T10:36:15;15.10;99.90
10155;DHT22;5118;48.570;7.916;2024-03-29T10:38:45;15.40;99.90
10155;DHT22;5118;48.570;7.916;2024-03-29T10:41:13;15.70;99.90
10155;DHT22;5118;48.570;7.916;2024-03-29T10:43:41;16.00;99.90
10155;DHT22;5118;48.570;7.916;2024-03-29T10:46:11;16.20;99.90
10155;DHT22;5118;48.570;7.916;2024-03-29T10:48:39;16.40;99.90
10155;DHT22;5118;48.570;7.916;2024-03-29T10:51:09;16.60;99.90
10155;DHT22;5118;48.570;7.916;2024-03-29T10:53:38;16.90;99.90
10155;DHT22;5118;48.570;7.916;2024-03-29T10:56:07;17.00;99.90
10155;DHT22;5118;48.570;7.916;2024-03-29T10:58:40;17.00;99.90
10155;DHT22;5118;48.570;7.916;2024-03-29T11:01:13;17.00;99.90
10155;DHT22;5118;48.570;7.916;2024-03-29T11:03:45;17.00;99.90
10155;DHT22;5118;48.570;7.916;2024-03-29T11:06:18;16.90;99.90
10155;DHT22;5118;48.570;7.916;2024-03-29T11:08:48;16.90;99.90
10155;DHT22;5118;48.570;7.916;2024-03-29T11:11:19;16.90;99.90
10155;DHT22;5118;48.570;7.916;2024-03-29T11:13:54;17.00;99.90
10155;DHT22;5118;48.570;7.916;2024-03-29T11:16:22;17.20;99.90
10155;DHT22;5118;48.570;7.916;2024-03-29T11:18:52;17.50;99.90
10155;DHT22;5118;48.570;7.916;2024-03-29T11:21:20;17.80;99.90
10155;DHT22;5118;48.570;7.916;2024-03-29T11:23:50;18.10;99.90
10155;DHT22;5118;48.570;7.916;2024-03-29T11:26:20;18.30;99.90
10155;DHT22;5118;48.570;7.916;2024-03-29T11:28:49;18.40;99.90
10155;DHT22;5118;48.570;7.916;2024-03-29T11:31:17;18.40;99.90
10155;DHT22;5118;48.570;7.916;2024-03-29T11:33:45;18.40;99.90
10155;DHT22;5118;48.570;7.916;2024-03-29T11:36:15;18.30;99.90
10155;DHT22;5118;48.570;7.916;2024-03-29T11:38:45;18.20;99.90
10155;DHT22;5118;48.570;7.916;2024-03-29T11:41:14;18.10;99.90
10155;DHT22;5118;48.570;7.916;2024-03-29T11:43:43;18.10;99.90
10155;DHT22;5118;48.570;7.916;2024-03-29T11:46:12;18.00;99.90
10155;DHT22;5118;48.570;7.916;2024-03-29T11:48:40;18.00;99.90
10155;DHT22;5118;48.570;7.916;2024-03-29T11:51:09;17.90;99.90
10155;DHT22;5118;48.570;7.916;2024-03-29T11:53:37;17.80;99.90
10155;DHT22;5118;48.570;7.916;2024-03-29T11:56:05;17.70;99.90
10155;DHT22;5118;48.570;7.916;2024-03-29T11:58:36;17.70;99.90
10155;DHT22;5118;48.570;7.916;2024-03-29T12:01:06;17.60;99.90
10155;DHT22;5118;48.570;7.916;2024-03-29T12:03:39;17.50;99.90
10155;DHT22;5118;48.570;7.916;2024-03-29T12:06:09;17.40;99.90
10155;DHT22;5118;48.570;7.916;2024-03-29T12:08:39;17.30;99.90
10155;DHT22;5118;48.570;7.916;2024-03-29T12:11:09;17.20;99.90
10155;DHT22;5118;48.570;7.916;2024-03-29T12:13:41;17.10;99.90
10155;DHT22;5118;48.570;7.916;2024-03-29T12:16:12;16.90;99.90
10155;DHT22;5118;48.570;7.916;2024-03-29T12:18:40;16.70;99.90
10155;DHT22;5118;48.570;7.916;2024-03-29T12:21:09;16.50;99.90
10155;DHT22;5118;48.570;7.916;2024-03-29T12:23:39;16.40;99.90
10155;DHT22;5118;48.570;7.916;2024-03-29T12:26:14;16.30;99.90
10155;DHT22;5118;48.570;7.916;2024-03-29T12:28:41;16.20;99.90
10155;DHT22;5118;48.570;7.916;2024-03-29T12:31:09;16.10;99.90
10155;DHT22;5118;48.570;7.916;2024-03-29T12:33:39;16.10;99.90
10155;DHT22;5118;48.570;7.916;2024-03-29T12:36:07;16.10;99.90
10155;DHT22;5118;48.570;7.916;2024-03-29T12:38:35;16.10;99.90
10155;DHT22;5118;48.570;7.916;2024-03-29T12:41:03;16.20;99.90
10155;DHT22;5118;48.570;7.916;2024-03-29T12:43:31;16.20;99.90
10155;DHT22;5118;48.570;7.916;2024-03-29T12:45:58;16.20;99.90
10155;DHT22;5118;48.570;7.916;2024-03-29T12:48:26;16.10;99.90
10155;DHT22;5118;48.570;7.916;2024-03-29T12:50:56;16.00;99.90
10155;DHT22;5118;48.570;7.916;2024-03-29T12:53:23;16.00;99.90
10155;DHT22;5118;48.570;7.916;2024-03-29T12:55:50;15.90;99.90
10155;DHT22;5118;48.570;7.916;2024-03-29T12:58:18;15.70;99.90
10155;DHT22;5118;48.570;7.916;2024-03-29T13:00:48;15.60;99.90
10155;DHT22;5118;48.570;7.916;2024-03-29T13:03:15;15.60;99.90
10155;DHT22;5118;48.570;7.916;2024-03-29T13:05:43;15.50;99.90
10155;DHT22;5118;48.570;7.916;2024-03-29T13:08:13;15.30;99.90
10155;DHT22;5118;48.570;7.916;2024-03-29T13:10:42;15.50;99.90
10155;DHT22;5118;48.570;7.916;2024-03-29T13:13:10;15.60;99.90
10155;DHT22;5118;48.570;7.916;2024-03-29T13:15:38;15.80;99.90
10155;DHT22;5118;48.570;7.916;2024-03-29T13:18:07;15.80;99.90
10155;DHT22;5118;48.570;7.916;2024-03-29T13:20:36;15.90;99.90
10155;DHT22;5118;48.570;7.916;2024-03-29T13:23:06;16.00;99.90
10155;DHT22;5118;48.570;7.916;2024-03-29T13:25:35;16.20;99.90
10155;DHT22;5118;48.570;7.916;2024-03-29T13:28:03;16.30;99.90
10155;DHT22;5118;48.570;7.916;2024-03-29T13:30:31;16.50;99.90
10155;DHT22;5118;48.570;7.916;2024-03-29T13:32:59;16.50;99.90
10155;DHT22;5118;48.570;7.916;2024-03-29T13:35:26;16.50;99.90
10155;DHT22;5118;48.570;7.916;2024-03-29T13:37:54;16.60;99.90
10155;DHT22;5118;48.570;7.916;2024-03-29T13:40:23;16.60;99.90
10155;DHT22;5118;48.570;7.916;2024-03-29T13:42:52;16.50;99.90
10155;DHT22;5118;48.570;7.916;2024-03-29T13:45:20;16.50;99.90
10155;DHT22;5118;48.570;7.916;2024-03-29T13:47:47;16.40;99.90
10155;DHT22;5118;48.570;7.916;2024-03-29T13:50:15;16.30;99.90
10155;DHT22;5118;48.570;7.916;2024-03-29T13:52:43;16.30;99.90
10155;DHT22;5118;48.570;7.916;2024-03-29T13:55:10;16.20;99.90
10155;DHT22;5118;48.570;7.916;2024-03-29T13:57:38;16.20;99.90
10155;DHT22;5118;48.570;7.916;2024-03-29T14:00:09;16.20;99.90
10155;DHT22;5118;48.570;7.916;2024-03-29T14:02:40;16.20;99.90
10155;DHT22;5118;48.570;7.916;2024-03-29T14:05:08;16.20;99.90
10155;DHT22;5118;48.570;7.916;2024-03-29T14:07:35;16.20;99.90
10155;DHT22;5118;48.570;7.916;2024-03-29T14:10:03;16.20;99.90
10155;DHT22;5118;48.570;7.916;2024-03-29T14:12:32;16.30;99.90
10155;DHT22;5118;48.570;7.916;2024-03-29T14:15:00;16.40;99.90
10155;DHT22;5118;48.570;7.916;2024-03-29T14:17:29;16.50;99.90
10155;DHT22;5118;48.570;7.916;2024-03-29T14:19:56;16.80;99.90
10155;DHT22;5118;48.570;7.916;2024-03-29T14:22:25;17.20;99.90
10155;DHT22;5118;48.570;7.916;2024-03-29T14:24:52;17.40;99.90
10155;DHT22;5118;48.570;7.916;2024-03-29T14:27:21;17.60;99.90
10155;DHT22;5118;48.570;7.916;2024-03-29T14:29:50;17.70;99.90
10155;DHT22;5118;48.570;7.916;2024-03-29T14:32:18;17.80;99.90
10155;DHT22;5118;48.570;7.916;2024-03-29T14:34:47;18.10;99.90
10155;DHT22;5118;48.570;7.916;2024-03-29T14:37:15;18.30;99.90
10155;DHT22;5118;48.570;7.916;2024-03-29T14:39:42;18.40;99.90
10155;DHT22;5118;48.570;7.916;2024-03-29T14:42:11;18.30;99.90
10155;DHT22;5118;48.570;7.916;2024-03-29T14:44:42;18.30;99.90
10155;DHT22;5118;48.570;7.916;2024-03-29T14:47:09;18.30;99.90
10155;DHT22;5118;48.570;7.916;2024-03-29T14:49:36;18.40;99.90
10155;DHT22;5118;48.570;7.916;2024-03-29T14:52:05;18.70;99.90
10155;DHT22;5118;48.570;7.916;2024-03-29T14:54:33;19.00;99.90
10155;DHT22;5118;48.570;7.916;2024-03-29T14:57:00;19.30;99.90
10155;DHT22;5118;48.570;7.916;2024-03-29T14:59:28;19.50;99.90
10155;DHT22;5118;48.570;7.916;2024-03-29T15:01:56;19.70;99.90
10155;DHT22;5118;48.570;7.916;2024-03-29T15:04:24;19.90;99.90
10155;DHT22;5118;48.570;7.916;2024-03-29T15:06:52;20.00;99.90
10155;DHT22;5118;48.570;7.916;2024-03-29T15:09:19;20.00;99.90
10155;DHT22;5118;48.570;7.916;2024-03-29T15:11:47;20.00;99.90
10155;DHT22;5118;48.570;7.916;2024-03-29T15:14:14;20.00;99.90
10155;DHT22;5118;48.570;7.916;2024-03-29T15:16:42;19.90;99.90
10155;DHT22;5118;48.570;7.916;2024-03-29T15:19:10;19.90;99.90
10155;DHT22;5118;48.570;7.916;2024-03-29T15:21:38;19.80;99.90
10155;DHT22;5118;48.570;7.916;2024-03-29T15:24:06;19.60;99.90
10155;DHT22;5118;48.570;7.916;2024-03-29T15:26:35;19.40;99.90
10155;DHT22;5118;48.570;7.916;2024-03-29T15:29:03;19.10;99.90
10155;DHT22;5118;48.570;7.916;2024-03-29T15:31:34;18.90;99.90
10155;DHT22;5118;48.570;7.916;2024-03-29T15:34:02;18.60;99.90
10155;DHT22;5118;48.570;7.916;2024-03-29T15:36:31;18.40;99.90
10155;DHT22;5118;48.570;7.916;2024-03-29T15:38:59;18.20;99.90
10155;DHT22;5118;48.570;7.916;2024-03-29T15:41:32;18.00;99.90
10155;DHT22;5118;48.570;7.916;2024-03-29T15:44:01;18.00;99.90
10155;DHT22;5118;48.570;7.916;2024-03-29T15:46:29;18.00;99.90
10155;DHT22;5118;48.570;7.916;2024-03-29T15:48:57;18.00;99.90
10155;DHT22;5118;48.570;7.916;2024-03-29T15:51:25;17.90;99.90
10155;DHT22;5118;48.570;7.916;2024-03-29T15:53:54;17.90;99.90
10155;DHT22;5118;48.570;7.916;2024-03-29T15:56:26;17.80;99.90
10155;DHT22;5118;48.570;7.916;2024-03-29T15:58:54;17.80;99.90
10155;DHT22;5118;48.570;7.916;2024-03-29T16:01:24;17.70;99.90